Time;durP1;ratioP1;P1;durP2;ratioP2;P2;SDS_P1;SDS_P2;PMS_P1;PMS_P2;Temp;Humidity;BMP_temperature;BMP_pressure;BME280_temperature;BME280_humidity;BME280_pressure;Samples;Min_cycle;Max_cycle;Signal;HPM_P1;HPM_P2
2022/08/31 00:06:03;;;;;;;3.30;3.00;;;;;;;;;;5137201;27;20203;-35
2022/08/31 00:08:39;;;;;;;3.30;3.00;;;;;;;;;;5131804;27;20231;-37
2022/08/31 00:11:26;;;;;;;6.53;2.87;;;;;;;;;;5109307;28;20688;-34
2022/08/31 00:14:07;;;;;;;7.95;3.42;;;;;;;;;;5115554;27;20235;-33
2022/08/31 00:16:48;;;;;;;3.40;2.97;;;;;;;;;;5109386;28;20212;-35
2022/08/31 00:19:36;;;;;;;4.20;3.00;;;;;;;;;;5363013;22;20223;-34
2022/08/31 00:22:23;;;;;;;5.00;3.23;;;;;;;;;;5129607;27;20306;-37
2022/08/31 00:25:25;;;;;;;2.97;2.70;;;;;;;;;;5120601;27;20268;-36
2022/08/31 00:28:05;;;;;;;6.78;2.90;;;;;;;;;;5120627;27;20223;-36
2022/08/31 00:30:51;;;;;;;6.77;3.13;;;;;;;;;;5113649;28;20233;-33
2022/08/31 00:33:20;;;;;;;3.97;3.20;;;;;;;;;;5207331;22;20326;-30
2022/08/31 00:35:47;;;;;;;5.27;3.00;;;;;;;;;;5112809;28;20203;-32
2022/08/31 00:38:15;;;;;;;3.00;2.70;;;;;;;;;;5060832;28;20221;-34
2022/08/31 00:40:43;;;;;;;3.17;2.70;;;;;;;;;;5074448;28;20236;-35
2022/08/31 00:43:11;;;;;;;3.20;2.90;;;;;;;;;;5072237;28;20208;-32
2022/08/31 00:45:38;;;;;;;4.30;3.40;;;;;;;;;;5069430;28;20207;-31
2022/08/31 00:48:05;;;;;;;3.35;3.05;;;;;;;;;;5071958;28;20232;-33
2022/08/31 00:50:34;;;;;;;5.07;3.27;;;;;;;;;;5092696;28;20201;-30
2022/08/31 00:53:01;;;;;;;3.53;3.13;;;;;;;;;;5092284;28;20208;-34
2022/08/31 00:55:30;;;;;;;3.20;2.93;;;;;;;;;;5061228;28;20227;-30
2022/08/31 00:57:58;;;;;;;3.13;2.83;;;;;;;;;;5075765;28;20225;-31
2022/08/31 01:00:27;;;;;;;3.33;2.60;;;;;;;;;;5062292;28;20218;-34
2022/08/31 01:02:55;;;;;;;5.40;3.23;;;;;;;;;;5061033;28;20209;-34
2022/08/31 01:05:22;;;;;;;3.03;2.77;;;;;;;;;;5073741;28;20200;-33
2022/08/31 01:07:51;;;;;;;5.27;3.13;;;;;;;;;;5091278;28;20231;-34
2022/08/31 01:10:20;;;;;;;4.63;2.90;;;;;;;;;;5074510;28;20205;-34
2022/08/31 01:12:48;;;;;;;4.70;3.50;;;;;;;;;;5070657;28;20217;-34
2022/08/31 01:15:16;;;;;;;3.67;3.13;;;;;;;;;;5068859;28;20223;-32
2022/08/31 01:17:44;;;;;;;3.67;3.33;;;;;;;;;;5075287;28;20590;-32
2022/08/31 01:20:14;;;;;;;3.50;2.97;;;;;;;;;;5089652;28;20224;-33
2022/08/31 01:22:46;;;;;;;6.07;3.23;;;;;;;;;;5077437;28;20709;-33
2022/08/31 01:25:14;;;;;;;4.57;3.60;;;;;;;;;;5075025;28;20208;-33
2022/08/31 01:27:41;;;;;;;5.67;3.50;;;;;;;;;;5070981;28;20221;-32
2022/08/31 01:30:10;;;;;;;3.27;2.97;;;;;;;;;;5066356;28;20209;-33
2022/08/31 01:32:37;;;;;;;4.67;3.03;;;;;;;;;;5072089;28;20204;-30
2022/08/31 01:35:06;;;;;;;3.93;3.53;;;;;;;;;;5073222;28;20215;-31
2022/08/31 01:37:33;;;;;;;4.87;3.37;;;;;;;;;;5066536;28;20255;-32
2022/08/31 01:40:00;;;;;;;4.57;3.20;;;;;;;;;;5082634;28;20200;-33
2022/08/31 01:42:28;;;;;;;4.83;2.90;;;;;;;;;;5074597;28;20201;-31
2022/08/31 01:44:55;;;;;;;4.47;3.13;;;;;;;;;;5067698;28;20205;-34
2022/08/31 01:47:23;;;;;;;5.03;3.63;;;;;;;;;;5076770;28;20217;-32
2022/08/31 01:49:50;;;;;;;6.10;3.90;;;;;;;;;;5091415;28;20208;-34
2022/08/31 01:52:17;;;;;;;4.43;3.83;;;;;;;;;;5083656;28;20760;-35
2022/08/31 01:54:44;;;;;;;3.87;3.47;;;;;;;;;;5056224;28;20441;-30
2022/08/31 01:57:11;;;;;;;5.60;3.37;;;;;;;;;;5078533;28;20212;-35
2022/08/31 01:59:42;;;;;;;6.17;3.97;;;;;;;;;;5059481;28;20212;-32
2022/08/31 02:02:09;;;;;;;4.40;3.70;;;;;;;;;;5075627;28;20224;-32
2022/08/31 02:04:36;;;;;;;4.40;4.00;;;;;;;;;;5090733;28;20204;-33
2022/08/31 02:07:03;;;;;;;4.00;3.60;;;;;;;;;;5090271;28;20220;-31
2022/08/31 02:09:30;;;;;;;3.80;3.50;;;;;;;;;;5069858;28;20212;-31
2022/08/31 02:11:58;;;;;;;4.47;3.43;;;;;;;;;;5073963;28;20529;-31
2022/08/31 02:14:25;;;;;;;5.30;3.60;;;;;;;;;;5075464;28;20209;-32
2022/08/31 02:16:55;;;;;;;5.77;3.97;;;;;;;;;;5064661;28;20229;-29
2022/08/31 02:19:22;;;;;;;4.67;3.77;;;;;;;;;;5089029;28;20211;-28
2022/08/31 02:21:50;;;;;;;8.67;4.80;;;;;;;;;;5090722;28;20235;-30
2022/08/31 02:24:20;;;;;;;5.50;4.23;;;;;;;;;;5071978;28;20209;-31
2022/08/31 02:26:47;;;;;;;9.60;4.60;;;;;;;;;;5089043;28;20295;-33
2022/08/31 02:29:16;;;;;;;7.73;4.30;;;;;;;;;;5078060;28;20217;-30
2022/08/31 02:31:43;;;;;;;6.60;4.00;;;;;;;;;;5069919;28;20267;-32
2022/08/31 02:34:12;;;;;;;4.43;4.03;;;;;;;;;;5087469;28;20218;-35
2022/08/31 02:36:41;;;;;;;6.90;4.33;;;;;;;;;;5090138;28;20211;-29
2022/08/31 02:39:08;;;;;;;5.63;4.30;;;;;;;;;;5066630;28;20620;-34
2022/08/31 02:41:36;;;;;;;6.30;4.50;;;;;;;;;;5075536;28;20236;-30
2022/08/31 02:44:03;;;;;;;4.73;4.33;;;;;;;;;;5077366;28;20201;-32
2022/08/31 02:46:30;;;;;;;4.73;4.27;;;;;;;;;;5067821;28;20197;-32
2022/08/31 02:48:57;;;;;;;5.53;4.00;;;;;;;;;;5086027;28;20403;-30
2022/08/31 02:51:26;;;;;;;6.77;4.27;;;;;;;;;;5090191;28;20208;-30
2022/08/31 02:53:53;;;;;;;6.57;4.67;;;;;;;;;;5073500;28;20212;-29
2022/08/31 02:56:20;;;;;;;5.37;4.40;;;;;;;;;;5070967;28;20231;-29
2022/08/31 02:58:53;;;;;;;5.80;4.40;;;;;;;;;;5078929;28;20920;-29
2022/08/31 03:01:20;;;;;;;5.50;4.70;;;;;;;;;;5067985;28;20218;-31
2022/08/31 03:03:47;;;;;;;7.40;4.40;;;;;;;;;;5077293;28;20669;-30
2022/08/31 03:06:14;;;;;;;5.77;4.47;;;;;;;;;;5066860;28;20205;-31
2022/08/31 03:08:43;;;;;;;6.37;4.50;;;;;;;;;;5073066;28;20213;-31
2022/08/31 03:11:10;;;;;;;7.83;5.07;;;;;;;;;;5077522;28;20194;-32
2022/08/31 03:13:37;;;;;;;6.93;4.67;;;;;;;;;;5064438;28;20216;-29
2022/08/31 03:16:05;;;;;;;5.43;4.70;;;;;;;;;;5058277;28;20239;-30
2022/08/31 03:18:33;;;;;;;7.33;5.00;;;;;;;;;;5076972;28;20213;-30
2022/08/31 03:21:01;;;;;;;6.07;5.10;;;;;;;;;;5067391;28;20601;-32
2022/08/31 03:23:28;;;;;;;6.80;4.73;;;;;;;;;;5064933;28;20208;-30
2022/08/31 03:25:57;;;;;;;6.70;4.93;;;;;;;;;;5069956;28;20290;-28
2022/08/31 03:28:24;;;;;;;6.83;4.43;;;;;;;;;;5067176;28;20220;-32
2022/08/31 03:30:51;;;;;;;9.30;5.10;;;;;;;;;;5068310;28;20210;-30
2022/08/31 03:33:18;;;;;;;6.80;5.47;;;;;;;;;;5081654;28;20227;-32
2022/08/31 03:35:45;;;;;;;6.37;4.70;;;;;;;;;;5073367;28;20219;-29
2022/08/31 03:38:14;;;;;;;6.33;5.00;;;;;;;;;;5069959;28;20243;-30
2022/08/31 03:40:42;;;;;;;7.87;5.07;;;;;;;;;;5054173;28;20288;-31
2022/08/31 03:43:10;;;;;;;6.90;4.80;;;;;;;;;;5072002;28;20238;-31
2022/08/31 03:45:38;;;;;;;6.23;5.30;;;;;;;;;;5070366;28;20199;-35
2022/08/31 03:48:06;;;;;;;5.13;4.63;;;;;;;;;;5089652;28;20219;-32
2022/08/31 03:50:33;;;;;;;6.67;4.50;;;;;;;;;;5077368;28;20207;-32
2022/08/31 03:53:02;;;;;;;6.57;4.67;;;;;;;;;;5068349;28;20211;-31
2022/08/31 03:55:30;;;;;;;5.63;4.83;;;;;;;;;;5064654;28;20541;-29
2022/08/31 03:57:57;;;;;;;6.17;5.27;;;;;;;;;;5089032;28;20227;-31
2022/08/31 04:00:26;;;;;;;7.77;4.03;;;;;;;;;;5076515;28;20211;-30
2022/08/31 04:02:58;;;;;;;5.77;4.67;;;;;;;;;;5088248;28;20612;-35
2022/08/31 04:05:26;;;;;;;4.47;3.87;;;;;;;;;;5073001;28;20204;-30
2022/08/31 04:07:53;;;;;;;5.13;4.43;;;;;;;;;;5068230;28;20232;-33
2022/08/31 04:10:21;;;;;;;6.53;4.37;;;;;;;;;;5061896;28;20216;-34
2022/08/31 04:12:49;;;;;;;4.73;4.30;;;;;;;;;;5079362;28;20274;-32
2022/08/31 04:15:16;;;;;;;5.83;4.43;;;;;;;;;;5063062;28;20215;-30
2022/08/31 04:17:46;;;;;;;4.80;4.13;;;;;;;;;;5067124;28;20228;-32
2022/08/31 04:20:13;;;;;;;6.73;4.90;;;;;;;;;;5092421;28;20197;-30
2022/08/31 04:22:40;;;;;;;6.00;5.00;;;;;;;;;;5073677;28;20247;-32
2022/08/31 04:25:09;;;;;;;6.63;4.90;;;;;;;;;;5075520;28;20208;-33
2022/08/31 04:27:36;;;;;;;5.30;4.50;;;;;;;;;;5081721;28;20290;-34
2022/08/31 04:30:04;;;;;;;5.70;4.57;;;;;;;;;;5062867;28;20207;-30
2022/08/31 04:32:31;;;;;;;7.57;5.10;;;;;;;;;;5078723;28;20810;-31
2022/08/31 04:35:00;;;;;;;7.07;5.27;;;;;;;;;;5092358;28;20208;-31
2022/08/31 04:37:28;;;;;;;6.43;5.27;;;;;;;;;;5076466;28;20244;-32
2022/08/31 04:39:57;;;;;;;5.97;4.87;;;;;;;;;;5070404;28;20239;-33
2022/08/31 04:42:31;;;;;;;10.53;5.30;;;;;;;;;;5073084;28;20311;-32
2022/08/31 04:44:58;;;;;;;6.20;5.17;;;;;;;;;;5066031;28;20207;-34
2022/08/31 04:47:25;;;;;;;6.43;5.53;;;;;;;;;;5072687;28;20232;-33
2022/08/31 04:49:52;;;;;;;5.63;5.03;;;;;;;;;;5087895;28;20235;-30
2022/08/31 04:52:21;;;;;;;6.80;4.97;;;;;;;;;;5083699;28;20212;-31
2022/08/31 04:54:48;;;;;;;8.23;5.80;;;;;;;;;;5080707;28;20209;-33
2022/08/31 04:57:15;;;;;;;6.47;5.27;;;;;;;;;;5081059;28;20229;-31
2022/08/31 04:59:42;;;;;;;5.57;5.07;;;;;;;;;;5068022;28;20213;-32
2022/08/31 05:02:09;;;;;;;5.63;5.03;;;;;;;;;;5071251;28;20239;-30
2022/08/31 05:04:36;;;;;;;7.10;5.87;;;;;;;;;;5084701;28;20210;-30
2022/08/31 05:07:03;;;;;;;7.07;5.17;;;;;;;;;;5091622;28;20223;-32
2022/08/31 05:09:32;;;;;;;8.73;5.90;;;;;;;;;;5068878;28;20210;-35
2022/08/31 05:11:59;;;;;;;7.03;5.60;;;;;;;;;;5067534;28;20197;-33
2022/08/31 05:14:26;;;;;;;6.57;5.47;;;;;;;;;;5067504;28;20209;-33
2022/08/31 05:16:53;;;;;;;8.87;5.53;;;;;;;;;;5062488;28;20229;-30
2022/08/31 05:19:21;;;;;;;7.83;5.97;;;;;;;;;;5073944;28;20235;-32
2022/08/31 05:21:48;;;;;;;8.57;6.13;;;;;;;;;;5072302;28;20219;-33
2022/08/31 05:24:17;;;;;;;9.07;6.50;;;;;;;;;;5071981;28;20205;-33
2022/08/31 05:26:48;;;;;;;8.53;6.43;;;;;;;;;;5069339;28;20624;-34
2022/08/31 05:29:15;;;;;;;8.30;6.20;;;;;;;;;;5070616;28;20379;-34
2022/08/31 05:31:43;;;;;;;9.57;6.70;;;;;;;;;;5070314;28;20208;-35
2022/08/31 05:34:11;;;;;;;8.43;6.63;;;;;;;;;;5080772;28;20219;-32
2022/08/31 05:36:39;;;;;;;6.90;5.87;;;;;;;;;;5072460;28;20208;-34
2022/08/31 05:39:10;;;;;;;7.53;6.77;;;;;;;;;;5070641;28;20275;-33
2022/08/31 05:41:38;;;;;;;8.83;6.43;;;;;;;;;;5074650;28;20648;-31
2022/08/31 05:44:07;;;;;;;8.33;6.97;;;;;;;;;;5075829;28;20215;-34
2022/08/31 05:46:34;;;;;;;11.93;6.10;;;;;;;;;;5069374;28;20213;-30
2022/08/31 05:49:01;;;;;;;9.57;6.23;;;;;;;;;;5072839;28;20673;-30
2022/08/31 05:51:28;;;;;;;8.00;6.37;;;;;;;;;;5074105;28;20211;-31
2022/08/31 05:53:59;;;;;;;8.83;7.10;;;;;;;;;;5070815;28;20207;-34
2022/08/31 05:56:26;;;;;;;8.97;5.77;;;;;;;;;;5071488;28;20614;-31
2022/08/31 05:58:54;;;;;;;9.70;7.23;;;;;;;;;;5072380;28;20236;-33
2022/08/31 06:01:23;;;;;;;7.50;6.30;;;;;;;;;;5067374;28;20219;-31
2022/08/31 06:03:52;;;;;;;6.57;5.83;;;;;;;;;;5080009;28;20205;-33
2022/08/31 06:06:20;;;;;;;9.23;7.63;;;;;;;;;;5093105;28;20216;-31
2022/08/31 06:08:50;;;;;;;9.50;7.80;;;;;;;;;;5062338;28;20229;-32
2022/08/31 06:11:18;;;;;;;9.00;7.50;;;;;;;;;;5064183;28;20203;-32
2022/08/31 06:13:45;;;;;;;10.33;7.40;;;;;;;;;;5068814;28;20216;-34
2022/08/31 06:16:13;;;;;;;11.50;8.50;;;;;;;;;;5075499;28;20207;-30
2022/08/31 06:18:49;;;;;;;12.93;8.37;;;;;;;;;;5081522;28;20223;-32
2022/08/31 06:21:17;;;;;;;10.13;6.93;;;;;;;;;;5072962;28;20290;-28
2022/08/31 06:23:45;;;;;;;10.27;7.73;;;;;;;;;;5066740;28;20717;-27
2022/08/31 06:26:14;;;;;;;10.70;7.80;;;;;;;;;;5059459;28;20209;-29
2022/08/31 06:28:44;;;;;;;8.47;6.03;;;;;;;;;;5076833;28;20720;-30
2022/08/31 06:31:17;;;;;;;9.00;6.70;;;;;;;;;;5073567;28;20215;-29
2022/08/31 06:36:24;;;;;;;10.00;7.63;;;;;;;;;;5110337;28;20232;-33
2022/08/31 06:39:11;;;;;;;8.00;6.47;;;;;;;;;;5109902;28;20240;-34
2022/08/31 06:41:55;;;;;;;8.10;6.60;;;;;;;;;;5121455;27;20246;-37
2022/08/31 06:44:39;;;;;;;9.17;6.60;;;;;;;;;;5120939;27;20249;-35
2022/08/31 06:47:19;;;;;;;10.40;7.53;;;;;;;;;;5125265;27;20232;-38
2022/08/31 06:50:21;;;;;;;8.87;6.77;;;;;;;;;;5114792;28;20204;-32
2022/08/31 06:56:19;;;;;;;9.57;6.17;;;;;;;;;;5093438;28;20244;-35
2022/08/31 06:58:59;;;;;;;8.83;5.87;;;;;;;;;;5112770;28;20218;-35
2022/08/31 07:01:35;;;;;;;7.80;6.23;;;;;;;;;;5117764;28;20220;-35
2022/08/31 07:04:13;;;;;;;7.77;6.33;;;;;;;;;;5117453;28;20205;-35
2022/08/31 07:07:10;;;;;;;7.57;6.30;;;;;;;;;;5112491;28;20206;-37
2022/08/31 07:09:58;;;;;;;7.10;5.33;;;;;;;;;;5099069;28;20600;-36
2022/08/31 07:12:55;;;;;;;7.57;5.93;;;;;;;;;;5126723;28;20250;-35
2022/08/31 07:15:43;;;;;;;6.97;5.77;;;;;;;;;;5125574;28;20217;-33
2022/08/31 07:18:30;;;;;;;5.90;5.30;;;;;;;;;;5094109;28;20220;-38
2022/08/31 07:21:21;;;;;;;6.30;5.40;;;;;;;;;;5095086;28;20298;-34
2022/08/31 07:24:17;;;;;;;6.87;5.27;;;;;;;;;;5105201;28;20655;-36
2022/08/31 07:27:08;;;;;;;6.90;5.80;;;;;;;;;;5114776;28;20205;-35
2022/08/31 07:29:59;;;;;;;6.17;4.93;;;;;;;;;;5113687;28;20207;-36
2022/08/31 07:33:00;;;;;;;7.80;5.77;;;;;;;;;;5118457;28;20195;-36
2022/08/31 07:36:03;;;;;;;6.37;5.27;;;;;;;;;;5094583;28;20224;-34
2022/08/31 07:44:34;;;;;;;5.17;4.57;;;;;;;;;;5066359;28;20211;-35
2022/08/31 07:57:53;;;;;;;6.10;4.97;;;;;;;;;;5102792;28;20242;-43
2022/08/31 08:00:55;;;;;;;7.13;5.07;;;;;;;;;;5089007;28;20221;-45
2022/08/31 08:06:46;;;;;;;4.87;4.47;;;;;;;;;;5090530;28;20194;-41
2022/08/31 08:09:31;;;;;;;4.63;4.23;;;;;;;;;;5085705;28;20235;-43
2022/08/31 08:12:28;;;;;;;5.27;4.40;;;;;;;;;;5082203;28;20217;-42
2022/08/31 08:15:32;;;;;;;5.90;4.67;;;;;;;;;;5077461;28;20219;-39
2022/08/31 08:21:45;;;;;;;6.93;4.70;;;;;;;;;;5075627;28;20211;-43
2022/08/31 08:33:21;;;;;;;4.60;4.20;;;;;;;;;;5124092;27;20198;-32
2022/08/31 08:36:06;;;;;;;5.33;4.83;;;;;;;;;;5116634;28;20267;-34
2022/08/31 08:44:36;;;;;;;6.30;4.00;;;;;;;;;;5119355;27;20243;-33
2022/08/31 08:47:18;;;;;;;4.37;3.97;;;;;;;;;;5133910;27;20237;-34
2022/08/31 08:50:09;;;;;;;5.23;4.70;;;;;;;;;;5122377;27;20645;-36
2022/08/31 08:52:56;;;;;;;5.50;4.13;;;;;;;;;;5116568;28;20196;-34
2022/08/31 08:55:40;;;;;;;6.80;4.67;;;;;;;;;;5112005;27;20250;-37
2022/08/31 08:58:20;;;;;;;5.00;3.83;;;;;;;;;;5116469;28;20340;-35
2022/08/31 09:00:59;;;;;;;7.80;4.33;;;;;;;;;;5107833;28;20210;-38
2022/08/31 09:03:47;;;;;;;5.93;4.17;;;;;;;;;;5107522;28;20225;-38
2022/08/31 09:06:31;;;;;;;5.83;4.70;;;;;;;;;;5115144;28;20227;-38
2022/08/31 09:09:16;;;;;;;4.60;4.20;;;;;;;;;;5113373;27;20264;-33
2022/08/31 09:12:00;;;;;;;6.60;4.43;;;;;;;;;;5127117;27;20289;-37
2022/08/31 09:15:00;;;;;;;5.20;4.40;;;;;;;;;;5101831;27;20215;-35
2022/08/31 09:17:48;;;;;;;5.87;4.53;;;;;;;;;;5114839;27;20225;-39
2022/08/31 09:20:36;;;;;;;4.27;3.87;;;;;;;;;;5119499;27;20221;-33
2022/08/31 09:23:28;;;;;;;6.57;4.97;;;;;;;;;;5095809;28;20226;-36
2022/08/31 09:26:23;;;;;;;5.50;4.10;;;;;;;;;;5123900;27;20197;-38
2022/08/31 09:32:22;;;;;;;6.30;4.50;;;;;;;;;;5107034;28;20271;-32
2022/08/31 09:35:15;;;;;;;5.43;4.70;;;;;;;;;;5094648;28;20206;-32
2022/08/31 09:40:52;;;;;;;4.80;4.30;;;;;;;;;;5116093;27;20211;-36
2022/08/31 09:43:48;;;;;;;7.63;5.10;;;;;;;;;;5114448;28;20294;-33
2022/08/31 09:46:35;;;;;;;4.53;4.10;;;;;;;;;;5118874;27;20221;-35
2022/08/31 09:49:23;;;;;;;5.43;4.47;;;;;;;;;;5126839;27;20207;-35
2022/08/31 09:52:06;;;;;;;6.13;5.00;;;;;;;;;;5114610;28;20218;-36
2022/08/31 09:58:03;;;;;;;5.70;4.70;;;;;;;;;;5119591;27;20234;-37
2022/08/31 10:00:53;;;;;;;4.70;4.03;;;;;;;;;;5104149;27;20198;-33
2022/08/31 10:06:25;;;;;;;5.47;4.90;;;;;;;;;;5132435;27;20207;-35
2022/08/31 10:09:26;;;;;;;5.40;4.70;;;;;;;;;;5124107;27;20273;-33
2022/08/31 10:12:24;;;;;;;6.20;5.60;;;;;;;;;;5119612;27;20211;-35
2022/08/31 10:15:03;;;;;;;6.20;4.50;;;;;;;;;;5109053;27;20208;-36
2022/08/31 10:17:47;;;;;;;5.87;5.37;;;;;;;;;;5117252;27;20234;-36
2022/08/31 10:20:26;;;;;;;6.83;4.97;;;;;;;;;;5135319;27;20218;-37
2022/08/31 10:28:50;;;;;;;6.10;5.50;;;;;;;;;;5076926;28;20308;-38
2022/08/31 10:31:44;;;;;;;7.63;5.97;;;;;;;;;;5115375;27;20231;-32
2022/08/31 10:37:37;;;;;;;8.60;6.13;;;;;;;;;;5111507;27;20222;-33
2022/08/31 10:40:19;;;;;;;9.00;6.13;;;;;;;;;;5122349;27;20207;-35
2022/08/31 10:43:20;;;;;;;6.25;5.55;;;;;;;;;;5130278;27;20219;-35
2022/08/31 10:46:14;;;;;;;8.48;6.28;;;;;;;;;;5101553;28;20216;-35
2022/08/31 10:49:06;;;;;;;7.10;5.70;;;;;;;;;;5106211;27;20272;-38
2022/08/31 10:51:55;;;;;;;5.93;5.33;;;;;;;;;;5127027;27;20200;-37
2022/08/31 10:57:35;;;;;;;7.50;5.28;;;;;;;;;;5116029;27;20314;-40
2022/08/31 11:00:40;;;;;;;6.90;5.40;;;;;;;;;;5130372;27;20304;-44
2022/08/31 11:19:09;;;;;;;5.25;4.75;;;;;;;;;;5184845;22;20318;-42
2022/08/31 11:25:08;;;;;;;7.97;5.40;;;;;;;;;;5136018;27;20229;-41
2022/08/31 11:27:53;;;;;;;6.65;5.82;;;;;;;;;;5082067;28;20316;-41
2022/08/31 11:42:37;;;;;;;8.38;5.75;;;;;;;;;;5129130;28;20256;-33
2022/08/31 11:48:48;;;;;;;6.13;5.10;;;;;;;;;;5145324;22;20231;-35
2022/08/31 11:51:36;;;;;;;7.75;4.85;;;;;;;;;;5135622;27;20207;-36
2022/08/31 11:54:44;;;;;;;5.97;5.20;;;;;;;;;;5128465;27;20200;-35
2022/08/31 12:00:39;;;;;;;6.22;4.03;;;;;;;;;;5158136;27;20263;-34
2022/08/31 12:09:39;;;;;;;5.13;4.33;;;;;;;;;;5129729;22;20231;-33
2022/08/31 12:25:12;;;;;;;4.85;4.35;;;;;;;;;;5107155;28;20279;-34
2022/08/31 12:28:00;;;;;;;6.78;4.40;;;;;;;;;;5097279;28;20223;-36
2022/08/31 12:30:41;;;;;;;5.18;4.03;;;;;;;;;;5111249;28;20291;-35
2022/08/31 13:03:21;;;;;;;4.77;4.13;;;;;;;;;;5099981;28;20287;-35
2022/08/31 13:12:03;;;;;;;8.53;4.63;;;;;;;;;;5103690;22;20258;-35
2022/08/31 13:29:21;;;;;;;6.40;4.50;;;;;;;;;;5139204;22;20243;-35
2022/08/31 13:35:31;;;;;;;5.97;4.60;;;;;;;;;;5129122;27;20515;-34
2022/08/31 13:41:09;;;;;;;8.68;4.90;;;;;;;;;;5121135;27;20210;-34
2022/08/31 13:44:09;;;;;;;6.03;4.47;;;;;;;;;;5126006;27;20214;-38
2022/08/31 13:47:11;;;;;;;6.22;5.32;;;;;;;;;;5114934;27;20200;-34
2022/08/31 13:49:55;;;;;;;8.55;4.95;;;;;;;;;;5143591;27;20229;-37
2022/08/31 13:52:38;;;;;;;6.88;5.20;;;;;;;;;;5130274;27;20239;-32
2022/08/31 13:55:40;;;;;;;11.07;5.18;;;;;;;;;;5139938;27;20209;-36
2022/08/31 13:58:29;;;;;;;8.05;4.90;;;;;;;;;;5117244;27;20211;-34
2022/08/31 14:01:23;;;;;;;11.15;4.97;;;;;;;;;;5127053;27;20204;-34
2022/08/31 14:07:00;;;;;;;6.97;5.10;;;;;;;;;;5131650;27;20195;-34
2022/08/31 14:09:53;;;;;;;17.92;4.80;;;;;;;;;;5128267;27;20207;-38
2022/08/31 14:12:49;;;;;;;5.97;4.53;;;;;;;;;;5132293;27;20203;-36
2022/08/31 14:15:34;;;;;;;5.78;4.90;;;;;;;;;;5128375;27;20236;-35
2022/08/31 14:18:27;;;;;;;12.40;5.10;;;;;;;;;;5142163;27;20676;-37
2022/08/31 14:21:32;;;;;;;5.07;4.28;;;;;;;;;;5129098;27;20275;-35
2022/08/31 14:24:17;;;;;;;6.60;4.75;;;;;;;;;;5122113;27;20684;-34
2022/08/31 14:26:52;;;;;;;6.95;4.70;;;;;;;;;;5116887;27;20200;-31
2022/08/31 14:29:26;;;;;;;6.45;4.68;;;;;;;;;;5121774;27;20207;-36
2022/08/31 14:32:08;;;;;;;7.65;4.82;;;;;;;;;;5127229;27;20297;-37
2022/08/31 14:37:06;;;;;;;5.82;4.38;;;;;;;;;;5109424;28;20224;-35
2022/08/31 14:39:36;;;;;;;6.03;5.10;;;;;;;;;;5104640;28;20196;-36
2022/08/31 14:42:05;;;;;;;8.80;5.13;;;;;;;;;;5106302;28;20199;-41
2022/08/31 14:44:34;;;;;;;8.93;5.10;;;;;;;;;;5103989;28;20227;-38
2022/08/31 14:47:01;;;;;;;6.55;4.85;;;;;;;;;;5104446;28;20231;-38
2022/08/31 14:49:29;;;;;;;6.07;5.03;;;;;;;;;;5110612;28;20264;-38
2022/08/31 14:52:05;;;;;;;6.05;4.35;;;;;;;;;;5104905;28;20258;-37
2022/08/31 14:54:33;;;;;;;6.78;5.13;;;;;;;;;;5110397;28;20192;-37
2022/08/31 14:57:03;;;;;;;5.63;4.80;;;;;;;;;;5110224;28;20251;-32
2022/08/31 14:59:31;;;;;;;7.40;4.72;;;;;;;;;;5103268;28;20211;-37
2022/08/31 15:01:58;;;;;;;6.55;4.93;;;;;;;;;;5105152;28;20199;-38
2022/08/31 15:04:26;;;;;;;8.57;4.85;;;;;;;;;;5109898;28;20222;-34
2022/08/31 15:07:04;;;;;;;5.32;4.82;;;;;;;;;;5110500;28;20219;-39
2022/08/31 15:09:34;;;;;;;6.47;5.72;;;;;;;;;;5106551;28;20206;-38
2022/08/31 15:12:04;;;;;;;7.05;5.38;;;;;;;;;;5110321;28;20303;-39
2022/08/31 15:14:36;;;;;;;8.05;4.72;;;;;;;;;;5102408;28;20200;-35
2022/08/31 15:17:05;;;;;;;12.75;5.40;;;;;;;;;;5105838;28;20262;-39
2022/08/31 15:19:32;;;;;;;8.05;4.78;;;;;;;;;;5110177;28;20235;-40
2022/08/31 15:21:59;;;;;;;6.22;4.53;;;;;;;;;;5110376;28;20289;-40
2022/08/31 15:24:27;;;;;;;7.95;5.38;;;;;;;;;;5098999;28;20219;-36
2022/08/31 15:26:57;;;;;;;8.88;5.30;;;;;;;;;;5112417;28;20234;-39
2022/08/31 15:29:29;;;;;;;7.40;5.07;;;;;;;;;;5107964;28;20216;-38
2022/08/31 15:31:57;;;;;;;7.22;5.65;;;;;;;;;;5108662;28;20208;-33
2022/08/31 15:34:25;;;;;;;5.80;5.20;;;;;;;;;;5115001;28;20208;-39
2022/08/31 15:36:54;;;;;;;6.15;4.93;;;;;;;;;;5117850;28;20238;-37
2022/08/31 15:39:22;;;;;;;7.70;5.18;;;;;;;;;;5102646;28;20200;-36
2022/08/31 15:41:49;;;;;;;7.10;5.05;;;;;;;;;;5112604;28;20207;-39
2022/08/31 15:44:17;;;;;;;5.97;5.07;;;;;;;;;;5107519;28;20273;-39
2022/08/31 15:49:35;;;;;;;6.43;5.30;;;;;;;;;;5117541;28;20281;-38
2022/08/31 15:52:05;;;;;;;6.33;5.30;;;;;;;;;;5114084;28;20203;-37
2022/08/31 15:54:34;;;;;;;7.93;5.37;;;;;;;;;;5114215;28;20203;-39
2022/08/31 15:57:04;;;;;;;5.90;5.10;;;;;;;;;;5112720;28;20281;-39
2022/08/31 15:59:35;;;;;;;9.70;5.23;;;;;;;;;;5100005;28;20202;-40
2022/08/31 16:02:04;;;;;;;6.90;5.13;;;;;;;;;;5110209;28;20271;-38
2022/08/31 16:04:37;;;;;;;6.40;4.83;;;;;;;;;;5111904;28;20227;-35
2022/08/31 16:07:08;;;;;;;6.33;4.73;;;;;;;;;;5110083;28;20223;-38
2022/08/31 16:09:35;;;;;;;6.47;4.70;;;;;;;;;;5110390;28;20214;-41
2022/08/31 16:12:12;;;;;;;4.83;4.33;;;;;;;;;;5113969;28;20256;-38
2022/08/31 16:14:43;;;;;;;4.53;4.13;;;;;;;;;;5106512;28;20219;-32
2022/08/31 16:17:13;;;;;;;4.13;3.63;;;;;;;;;;5108353;28;20235;-39
2022/08/31 16:19:44;;;;;;;5.90;3.70;;;;;;;;;;5115684;28;20192;-32
2022/08/31 16:22:12;;;;;;;5.70;3.70;;;;;;;;;;5115449;28;20205;-40
2022/08/31 16:24:41;;;;;;;4.00;3.60;;;;;;;;;;5107450;28;20235;-37
2022/08/31 16:27:10;;;;;;;4.30;3.90;;;;;;;;;;5116403;28;20277;-40
2022/08/31 16:29:41;;;;;;;5.10;3.38;;;;;;;;;;5107658;28;20242;-42
2022/08/31 16:32:09;;;;;;;3.80;3.50;;;;;;;;;;5108317;28;20212;-39
2022/08/31 16:34:38;;;;;;;4.10;3.70;;;;;;;;;;5112250;28;20203;-39
2022/08/31 16:37:06;;;;;;;4.67;4.03;;;;;;;;;;5116606;28;20251;-40
2022/08/31 16:39:36;;;;;;;5.00;3.60;;;;;;;;;;5104123;28;20200;-37
2022/08/31 16:42:04;;;;;;;4.80;4.30;;;;;;;;;;5112601;28;20211;-39
2022/08/31 16:44:31;;;;;;;5.67;3.97;;;;;;;;;;5107979;28;20249;-35
2022/08/31 16:47:05;;;;;;;5.17;3.57;;;;;;;;;;5115903;28;20226;-43
2022/08/31 16:49:35;;;;;;;4.30;3.90;;;;;;;;;;5115792;28;20202;-37
2022/08/31 16:52:04;;;;;;;5.77;3.60;;;;;;;;;;5109760;28;20195;-40
2022/08/31 16:54:35;;;;;;;3.77;2.90;;;;;;;;;;5109381;28;20200;-39
2022/08/31 16:57:04;;;;;;;5.63;3.30;;;;;;;;;;5113529;28;20299;-36
2022/08/31 16:59:31;;;;;;;3.87;3.53;;;;;;;;;;5108075;28;20207;-39
2022/08/31 17:01:59;;;;;;;3.83;3.50;;;;;;;;;;5107950;28;20307;-32
2022/08/31 17:04:26;;;;;;;4.93;3.70;;;;;;;;;;5114044;28;20211;-40
2022/08/31 17:06:55;;;;;;;4.93;3.37;;;;;;;;;;5105502;28;20224;-39
2022/08/31 17:09:27;;;;;;;4.37;3.53;;;;;;;;;;5112004;28;20206;-36
2022/08/31 17:11:57;;;;;;;3.50;3.20;;;;;;;;;;5113104;28;20199;-36
2022/08/31 17:14:31;;;;;;;5.30;3.80;;;;;;;;;;5102550;28;20210;-40
2022/08/31 17:17:04;;;;;;;4.93;4.20;;;;;;;;;;5105879;28;20247;-38
2022/08/31 17:19:34;;;;;;;7.23;3.73;;;;;;;;;;5110866;28;20196;-39
2022/08/31 17:22:03;;;;;;;3.60;3.27;;;;;;;;;;5107757;28;20200;-39
2022/08/31 17:24:35;;;;;;;5.40;3.90;;;;;;;;;;5106202;28;20238;-33
2022/08/31 17:27:04;;;;;;;3.90;3.50;;;;;;;;;;5111963;28;20253;-35
2022/08/31 17:29:33;;;;;;;4.33;3.57;;;;;;;;;;5106223;28;20195;-39
2022/08/31 17:32:00;;;;;;;4.43;3.73;;;;;;;;;;5109331;28;20287;-40
2022/08/31 17:34:29;;;;;;;4.97;3.90;;;;;;;;;;5110868;28;20286;-34
2022/08/31 17:36:57;;;;;;;4.03;3.63;;;;;;;;;;5107835;28;20319;-41
2022/08/31 17:39:27;;;;;;;5.23;3.83;;;;;;;;;;5104874;28;20295;-41
2022/08/31 17:41:58;;;;;;;4.53;3.93;;;;;;;;;;5112130;28;20200;-39
2022/08/31 17:44:27;;;;;;;5.87;4.00;;;;;;;;;;5107428;28;20219;-39
2022/08/31 17:46:55;;;;;;;6.00;4.13;;;;;;;;;;5110982;28;20277;-39
2022/08/31 17:49:24;;;;;;;4.33;3.90;;;;;;;;;;5114906;28;20206;-37
2022/08/31 17:54:54;;;;;;;4.10;3.27;;;;;;;;;;5082011;28;20254;-34
2022/08/31 17:57:33;;;;;;;4.23;3.80;;;;;;;;;;5127742;28;20290;-42
2022/08/31 18:02:45;;;;;;;4.13;3.73;;;;;;;;;;5115370;28;20206;-42
2022/08/31 18:11:17;;;;;;;7.00;3.50;;;;;;;;;;5109890;28;20264;-43
2022/08/31 18:17:05;;;;;;;4.30;3.90;;;;;;;;;;5113772;28;20203;-37
2022/08/31 18:19:36;;;;;;;4.60;3.37;;;;;;;;;;5129562;28;20207;-38
2022/08/31 18:22:08;;;;;;;5.20;3.87;;;;;;;;;;5120587;28;20211;-39
2022/08/31 18:24:38;;;;;;;4.50;3.50;;;;;;;;;;5110406;28;20223;-42
2022/08/31 18:27:21;;;;;;;3.80;3.20;;;;;;;;;;5106893;28;20220;-39
2022/08/31 18:29:52;;;;;;;4.77;3.50;;;;;;;;;;5081404;28;20200;-40
2022/08/31 18:32:23;;;;;;;4.30;3.90;;;;;;;;;;5113624;28;20213;-41
2022/08/31 18:34:59;;;;;;;5.37;3.60;;;;;;;;;;5117203;28;20210;-35
2022/08/31 18:37:30;;;;;;;6.00;3.67;;;;;;;;;;5104951;28;20284;-44
2022/08/31 18:45:36;;;;;;;4.13;3.73;;;;;;;;;;5106308;28;20258;-36
2022/08/31 18:48:11;;;;;;;5.07;3.97;;;;;;;;;;5112213;28;20652;-41
2022/08/31 18:50:40;;;;;;;3.60;3.30;;;;;;;;;;5105284;28;20280;-36
2022/08/31 18:53:07;;;;;;;4.00;3.60;;;;;;;;;;5110766;28;20209;-35
2022/08/31 18:55:36;;;;;;;5.30;3.40;;;;;;;;;;5108637;28;20205;-40
2022/08/31 18:58:05;;;;;;;5.67;3.73;;;;;;;;;;5103255;28;20222;-41
2022/08/31 19:00:32;;;;;;;3.80;3.50;;;;;;;;;;5102002;28;20210;-37
2022/08/31 19:03:00;;;;;;;5.07;3.93;;;;;;;;;;5110566;28;20216;-38